createdAt,value
2019-02-10T00:00:32.254Z,998.93
2019-02-10T00:01:32.191Z,998.95
2019-02-10T00:02:32.178Z,998.91
2019-02-10T00:03:32.145Z,998.85
2019-02-10T00:04:53.115Z,998.85
2019-02-10T00:05:32.093Z,998.87
2019-02-10T00:06:32.067Z,998.85
2019-02-10T00:07:32.051Z,998.77
2019-02-10T00:08:32.016Z,998.79
2019-02-10T00:09:31.992Z,998.75
2019-02-10T00:10:52.993Z,998.74
2019-02-10T00:11:31.962Z,998.71
2019-02-10T00:12:31.916Z,998.65
2019-02-10T00:13:31.918Z,998.70
2019-02-10T00:14:31.866Z,998.65
2019-02-10T00:15:31.841Z,998.68
2019-02-10T00:16:52.823Z,998.60
2019-02-10T00:17:31.795Z,998.63
2019-02-10T00:18:31.804Z,998.58
2019-02-10T00:19:31.774Z,998.50
2019-02-10T00:20:31.718Z,998.53
2019-02-10T00:21:31.694Z,998.52
2019-02-10T00:22:52.666Z,998.49
2019-02-10T00:23:31.645Z,998.48
2019-02-10T00:24:31.618Z,998.39
2019-02-10T00:25:31.592Z,998.41
2019-02-10T00:26:31.570Z,998.41
2019-02-10T00:27:31.541Z,998.44
2019-02-10T00:28:52.519Z,998.32
2019-02-10T00:29:31.495Z,998.31
2019-02-10T00:30:31.468Z,998.30
2019-02-10T00:31:31.452Z,998.26
2019-02-10T00:32:31.428Z,998.30
2019-02-10T00:33:31.392Z,998.26
2019-02-10T00:34:52.367Z,998.22
2019-02-10T00:35:31.344Z,998.23
2019-02-10T00:36:33.310Z,998.22
2019-02-10T00:37:31.292Z,998.16
2019-02-10T00:38:31.268Z,998.14
2019-02-10T00:39:31.244Z,998.19
2019-02-10T00:40:52.220Z,998.15
2019-02-10T00:41:31.193Z,998.10
2019-02-10T00:42:31.169Z,998.09
2019-02-10T00:43:31.143Z,998.06
2019-02-10T00:44:31.120Z,998.00
2019-02-10T00:45:31.094Z,998.04
2019-02-10T00:46:52.086Z,998.02
2019-02-10T00:47:31.045Z,997.97
2019-02-10T00:48:31.018Z,997.97
2019-02-10T00:49:30.993Z,997.91
2019-02-10T00:50:30.969Z,997.92
2019-02-10T00:51:30.943Z,997.94
2019-02-10T00:52:51.918Z,997.91
2019-02-10T00:53:30.914Z,997.89
2019-02-10T00:54:30.870Z,997.90
2019-02-10T00:55:30.877Z,997.89
2019-02-10T00:56:30.821Z,997.85
2019-02-10T00:57:30.794Z,997.83
2019-02-10T00:58:51.788Z,997.77
2019-02-10T00:59:30.899Z,997.82
2019-02-10T01:00:30.723Z,997.82
2019-02-10T01:01:30.695Z,997.68
2019-02-10T01:02:30.671Z,997.64
2019-02-10T01:03:30.644Z,997.63
2019-02-10T01:04:51.622Z,997.60
2019-02-10T01:05:30.594Z,997.57
2019-02-10T01:06:30.574Z,997.57
2019-02-10T01:07:30.548Z,997.57
2019-02-10T01:08:30.524Z,997.55
2019-02-10T01:09:30.498Z,997.54
2019-02-10T01:10:51.561Z,997.58
2019-02-10T01:11:30.445Z,997.54
2019-02-10T01:12:30.421Z,997.51
2019-02-10T01:13:30.395Z,997.46
2019-02-10T01:14:30.378Z,997.51
2019-02-10T01:15:30.353Z,997.45
2019-02-10T01:16:51.324Z,997.53
2019-02-10T01:17:30.297Z,997.54
2019-02-10T01:18:30.271Z,997.44
2019-02-10T01:19:30.251Z,997.45
2019-02-10T01:20:30.224Z,997.44
2019-02-10T01:21:30.200Z,997.41
2019-02-10T01:22:51.171Z,997.37
2019-02-10T01:23:30.147Z,997.36
2019-02-10T01:24:30.123Z,997.31
2019-02-10T01:25:30.097Z,997.31
2019-02-10T01:26:30.072Z,997.39
2019-02-10T01:27:30.047Z,997.28
2019-02-10T01:28:51.025Z,997.31
2019-02-10T01:29:29.997Z,997.28
2019-02-10T01:30:29.977Z,997.22
2019-02-10T01:31:29.975Z,997.18
2019-02-10T01:32:29.934Z,997.31
2019-02-10T01:33:29.901Z,997.16
2019-02-10T01:34:50.877Z,997.13
2019-02-10T01:35:29.847Z,997.10
2019-02-10T01:36:29.927Z,997.09
2019-02-10T01:37:29.799Z,997.02
2019-02-10T01:38:29.808Z,997.03
2019-02-10T01:39:29.747Z,997.01
2019-02-10T01:40:50.857Z,996.98
2019-02-10T01:41:29.697Z,996.90
2019-02-10T01:42:29.758Z,996.91
2019-02-10T01:43:29.648Z,996.79
2019-02-10T01:44:29.624Z,996.83
2019-02-10T01:45:29.601Z,996.73
2019-02-10T01:46:50.578Z,996.74
2019-02-10T01:47:29.561Z,996.74
2019-02-10T01:48:29.524Z,996.70
2019-02-10T01:49:29.499Z,996.76
2019-02-10T01:50:29.475Z,996.67
2019-02-10T01:51:29.448Z,996.60
2019-02-10T01:52:50.456Z,996.61
2019-02-10T01:53:29.400Z,996.63
2019-02-10T01:54:29.379Z,996.56
2019-02-10T01:55:29.419Z,996.61
2019-02-10T01:56:29.395Z,996.53
2019-02-10T01:57:29.301Z,996.52
2019-02-10T01:58:50.487Z,996.55
2019-02-10T01:59:29.249Z,996.47
2019-02-10T02:00:29.224Z,996.51
2019-02-10T02:01:29.198Z,996.45
2019-02-10T02:02:29.193Z,996.47
2019-02-10T02:03:29.149Z,996.43
2019-02-10T02:04:50.125Z,996.38
2019-02-10T02:05:29.116Z,996.43
2019-02-10T02:06:29.077Z,996.34
2019-02-10T02:07:29.051Z,996.30
2019-02-10T02:08:29.029Z,996.29
2019-02-10T02:09:29.002Z,996.30
2019-02-10T02:10:50.015Z,996.25
2019-02-10T02:11:28.951Z,996.23
2019-02-10T02:12:28.925Z,996.21
2019-02-10T02:13:28.905Z,996.19
2019-02-10T02:14:28.877Z,996.14
2019-02-10T02:15:28.851Z,996.09
2019-02-10T02:16:49.832Z,996.16
2019-02-10T02:17:28.802Z,996.14
2019-02-10T02:18:28.777Z,996.15
2019-02-10T02:19:28.753Z,996.15
2019-02-10T02:20:28.730Z,996.08
2019-02-10T02:21:28.718Z,996.03
2019-02-10T02:22:49.679Z,996.04
2019-02-10T02:23:28.653Z,996.06
2019-02-10T02:24:28.630Z,996.09
2019-02-10T02:25:28.603Z,996.04
2019-02-10T02:26:28.579Z,996.01
2019-02-10T02:27:28.553Z,995.93
2019-02-10T02:28:49.526Z,995.89
2019-02-10T02:29:28.504Z,995.91
2019-02-10T02:30:28.500Z,995.88
2019-02-10T02:31:28.454Z,995.86
2019-02-10T02:32:28.429Z,995.83
2019-02-10T02:33:28.407Z,995.85
2019-02-10T02:34:49.379Z,995.81
2019-02-10T02:35:28.355Z,995.78
2019-02-10T02:36:28.329Z,995.73
2019-02-10T02:37:28.308Z,995.70
2019-02-10T02:38:28.280Z,995.68
2019-02-10T02:39:28.267Z,995.62
2019-02-10T02:40:49.228Z,995.60
2019-02-10T02:41:28.213Z,995.59
2019-02-10T02:42:28.187Z,995.60
2019-02-10T02:43:28.161Z,995.53
2019-02-10T02:44:28.203Z,995.53
2019-02-10T02:45:28.106Z,995.51
2019-02-10T02:46:49.080Z,995.42
2019-02-10T02:47:28.059Z,995.45
2019-02-10T02:48:28.030Z,995.40
2019-02-10T02:49:28.008Z,995.43
2019-02-10T02:50:27.989Z,995.33
2019-02-10T02:51:27.961Z,995.32
2019-02-10T02:52:48.945Z,995.30
2019-02-10T02:53:27.908Z,995.29
2019-02-10T02:54:27.883Z,995.29
2019-02-10T02:55:27.857Z,995.24
2019-02-10T02:56:27.835Z,995.25
2019-02-10T02:57:27.807Z,995.29
2019-02-10T02:58:48.782Z,995.20
2019-02-10T02:59:27.758Z,995.23
2019-02-10T03:00:27.732Z,995.18
2019-02-10T03:01:27.707Z,995.17
2019-02-10T03:02:27.683Z,995.13
2019-02-10T03:03:27.657Z,995.10
2019-02-10T03:04:48.631Z,995.05
2019-02-10T03:05:27.607Z,995.01
2019-02-10T03:06:27.582Z,994.94
2019-02-10T03:07:27.555Z,994.93
2019-02-10T03:08:27.533Z,994.87
2019-02-10T03:09:27.572Z,994.84
2019-02-10T03:10:48.482Z,994.81
2019-02-10T03:11:27.458Z,994.73
2019-02-10T03:12:27.434Z,994.69
2019-02-10T03:13:27.407Z,994.61
2019-02-10T03:14:27.385Z,994.57
2019-02-10T03:15:27.356Z,994.50
2019-02-10T03:16:48.329Z,994.49
2019-02-10T03:17:27.308Z,994.48
2019-02-10T03:18:27.281Z,994.45
2019-02-10T03:19:27.255Z,994.44
2019-02-10T03:20:27.236Z,994.39
2019-02-10T03:21:27.205Z,994.39
2019-02-10T03:22:48.182Z,994.37
2019-02-10T03:23:27.156Z,994.30
2019-02-10T03:24:27.130Z,994.35
2019-02-10T03:25:27.151Z,994.31
2019-02-10T03:26:27.083Z,994.32
2019-02-10T03:27:27.056Z,994.29
2019-02-10T03:28:48.039Z,994.32
2019-02-10T03:29:27.005Z,994.33
2019-02-10T03:30:26.981Z,994.23
2019-02-10T03:31:26.985Z,994.12
2019-02-10T03:32:26.932Z,994.12
2019-02-10T03:33:26.910Z,994.15
2019-02-10T03:34:47.884Z,994.10
2019-02-10T03:35:26.862Z,994.07
2019-02-10T03:36:26.828Z,994.05
2019-02-10T03:37:27.542Z,993.98
2019-02-10T03:38:26.783Z,994.00
2019-02-10T03:39:26.763Z,993.98
2019-02-10T03:40:47.730Z,993.97
2019-02-10T03:41:26.706Z,993.92
2019-02-10T03:42:26.684Z,993.89
2019-02-10T03:43:26.654Z,993.90
2019-02-10T03:44:26.631Z,993.85
2019-02-10T03:45:26.606Z,993.84
2019-02-10T03:46:47.580Z,993.82
2019-02-10T03:47:26.556Z,993.77
2019-02-10T03:48:26.534Z,993.70
2019-02-10T03:49:26.507Z,993.71
2019-02-10T03:50:26.482Z,993.69
2019-02-10T03:51:26.457Z,993.65
2019-02-10T03:52:47.433Z,993.63
2019-02-10T03:53:26.407Z,993.61
2019-02-10T03:54:26.386Z,993.56
2019-02-10T03:55:26.356Z,993.52
2019-02-10T03:56:26.387Z,993.48
2019-02-10T03:57:26.309Z,993.46
2019-02-10T03:58:47.284Z,993.38
2019-02-10T03:59:26.258Z,993.40
2019-02-10T04:00:26.238Z,993.32
2019-02-10T04:01:26.211Z,993.30
2019-02-10T04:02:26.237Z,993.24
2019-02-10T04:03:26.161Z,993.24
2019-02-10T04:04:47.134Z,993.21
2019-02-10T04:05:26.110Z,993.21
2019-02-10T04:06:26.086Z,993.17
2019-02-10T04:07:26.074Z,993.12
2019-02-10T04:08:26.035Z,993.10
2019-02-10T04:09:26.010Z,993.08
2019-02-10T04:10:46.986Z,993.01
2019-02-10T04:11:25.962Z,993.01
2019-02-10T04:12:25.936Z,992.95
2019-02-10T04:13:25.911Z,992.94
2019-02-10T04:14:25.889Z,992.89
2019-02-10T04:15:25.863Z,992.89
2019-02-10T04:16:46.836Z,992.85
2019-02-10T04:17:25.814Z,992.84
2019-02-10T04:18:25.792Z,992.80
2019-02-10T04:19:25.764Z,992.76
2019-02-10T04:20:25.740Z,992.76
2019-02-10T04:21:25.714Z,992.75
2019-02-10T04:22:46.690Z,992.73
2019-02-10T04:23:25.668Z,992.70
2019-02-10T04:24:25.640Z,992.65
2019-02-10T04:25:25.629Z,992.68
2019-02-10T04:26:25.591Z,992.62
2019-02-10T04:27:25.565Z,992.57
2019-02-10T04:28:46.548Z,992.58
2019-02-10T04:29:25.515Z,992.45
2019-02-10T04:30:25.492Z,992.45
2019-02-10T04:31:25.468Z,992.42
2019-02-10T04:32:25.439Z,992.38
2019-02-10T04:33:25.446Z,992.37
2019-02-10T04:34:46.390Z,992.33
2019-02-10T04:35:25.364Z,992.26
2019-02-10T04:36:25.339Z,992.26
2019-02-10T04:37:25.314Z,992.22
2019-02-10T04:38:25.288Z,992.14
2019-02-10T04:39:25.263Z,992.15
2019-02-10T04:40:46.237Z,992.09
2019-02-10T04:41:25.213Z,992.09
2019-02-10T04:42:25.191Z,992.04
2019-02-10T04:43:25.162Z,992.00
2019-02-10T04:44:25.137Z,991.99
2019-02-10T04:45:25.111Z,991.97
2019-02-10T04:46:46.087Z,991.97
2019-02-10T04:47:25.063Z,991.94
2019-02-10T04:48:25.038Z,991.92
2019-02-10T04:49:25.010Z,991.89
2019-02-10T04:50:24.987Z,991.86
2019-02-10T04:51:24.960Z,991.76
2019-02-10T04:52:45.935Z,991.69
2019-02-10T04:53:24.912Z,991.64
2019-02-10T04:54:24.888Z,991.57
2019-02-10T04:55:24.862Z,991.58
2019-02-10T04:56:24.836Z,991.53
2019-02-10T04:57:24.814Z,991.52
2019-02-10T04:58:45.783Z,991.43
2019-02-10T04:59:24.773Z,991.41
2019-02-10T05:00:24.735Z,991.32
2019-02-10T05:01:24.709Z,991.28
2019-02-10T05:02:24.685Z,991.17
2019-02-10T05:03:24.661Z,991.14
2019-02-10T05:04:45.634Z,991.04
2019-02-10T05:05:24.610Z,991.04
2019-02-10T05:06:24.586Z,990.94
2019-02-10T05:07:24.560Z,990.90
2019-02-10T05:08:24.535Z,990.86
2019-02-10T05:09:24.572Z,990.87
2019-02-10T05:10:45.486Z,990.78
2019-02-10T05:11:24.464Z,990.76
2019-02-10T05:12:24.437Z,990.77
2019-02-10T05:13:24.418Z,990.70
2019-02-10T05:14:24.388Z,990.66
2019-02-10T05:15:24.361Z,990.65
2019-02-10T05:16:45.337Z,990.60
2019-02-10T05:17:24.311Z,990.54
2019-02-10T05:18:24.289Z,990.57
2019-02-10T05:19:24.263Z,990.51
2019-02-10T05:20:24.236Z,990.43
2019-02-10T05:21:24.219Z,990.44
2019-02-10T05:22:45.187Z,990.34
2019-02-10T05:23:24.161Z,990.28
2019-02-10T05:24:24.137Z,990.23
2019-02-10T05:25:24.113Z,990.26
2019-02-10T05:26:24.089Z,990.29
2019-02-10T05:27:24.062Z,990.22
2019-02-10T05:28:45.038Z,990.18
2019-02-10T05:29:24.014Z,990.12
2019-02-10T05:30:24.015Z,990.09
2019-02-10T05:31:23.965Z,990.02
2019-02-10T05:32:23.974Z,989.95
2019-02-10T05:33:23.915Z,989.93
2019-02-10T05:34:44.901Z,989.82
2019-02-10T05:35:23.863Z,989.78
2019-02-10T05:36:23.839Z,989.70
2019-02-10T05:37:23.813Z,989.70
2019-02-10T05:38:23.796Z,989.64
2019-02-10T05:39:23.765Z,989.56
2019-02-10T05:40:44.741Z,989.52
2019-02-10T05:41:23.720Z,989.49
2019-02-10T05:42:23.691Z,989.52
2019-02-10T05:43:23.667Z,989.43
2019-02-10T05:44:23.638Z,989.39
2019-02-10T05:45:23.623Z,989.29
2019-02-10T05:46:44.590Z,989.24
2019-02-10T05:47:23.564Z,989.18
2019-02-10T05:48:23.540Z,989.20
2019-02-10T05:49:23.514Z,989.16
2019-02-10T05:50:23.490Z,989.10
2019-02-10T05:51:23.463Z,989.08
2019-02-10T05:52:44.440Z,989.03
2019-02-10T05:53:23.423Z,989.02
2019-02-10T05:54:23.394Z,989.00
2019-02-10T05:55:23.365Z,988.97
2019-02-10T05:56:23.344Z,988.94
2019-02-10T05:57:23.313Z,988.87
2019-02-10T05:58:44.290Z,988.87
2019-02-10T05:59:23.263Z,988.75
2019-02-10T06:00:23.240Z,988.70
2019-02-10T06:01:23.220Z,988.63
2019-02-10T06:02:23.190Z,988.60
2019-02-10T06:03:23.167Z,988.55
2019-02-10T06:04:44.141Z,988.57
2019-02-10T06:05:23.114Z,988.51
2019-02-10T06:06:23.092Z,988.43
2019-02-10T06:07:23.067Z,988.38
2019-02-10T06:08:23.040Z,988.34
2019-02-10T06:09:23.063Z,988.29
2019-02-10T06:10:43.995Z,988.23
2019-02-10T06:11:22.965Z,988.25
2019-02-10T06:12:22.940Z,988.17
2019-02-10T06:13:22.914Z,988.13
2019-02-10T06:14:22.892Z,988.07
2019-02-10T06:15:22.864Z,988.07
2019-02-10T06:16:43.842Z,988.08
2019-02-10T06:17:22.821Z,988.02
2019-02-10T06:18:22.791Z,987.94
2019-02-10T06:19:22.763Z,987.89
2019-02-10T06:20:22.741Z,987.92
2019-02-10T06:21:22.714Z,987.89
2019-02-10T06:22:43.690Z,987.85
2019-02-10T06:23:22.664Z,987.78
2019-02-10T06:24:22.639Z,987.70
2019-02-10T06:25:22.615Z,987.69
2019-02-10T06:26:22.590Z,987.62
2019-02-10T06:27:22.566Z,987.51
2019-02-10T06:28:43.546Z,987.48
2019-02-10T06:29:22.521Z,987.45
2019-02-10T06:30:22.491Z,987.39
2019-02-10T06:31:22.465Z,987.29
2019-02-10T06:32:22.440Z,987.57
2019-02-10T06:33:22.416Z,987.77
2019-02-10T06:34:43.389Z,987.85
2019-02-10T06:35:22.364Z,987.85
2019-02-10T06:36:22.341Z,987.80
2019-02-10T06:37:22.314Z,987.77
2019-02-10T06:38:22.946Z,987.72
2019-02-10T06:39:22.263Z,987.62
2019-02-10T06:40:43.243Z,987.58
2019-02-10T06:41:22.217Z,987.25
2019-02-10T06:42:22.188Z,987.14
2019-02-10T06:43:22.160Z,987.19
2019-02-10T06:44:22.136Z,987.29
2019-02-10T06:45:22.133Z,987.29
2019-02-10T06:46:43.085Z,987.28
2019-02-10T06:47:22.060Z,987.35
2019-02-10T06:48:22.034Z,987.31
2019-02-10T06:49:22.009Z,987.36
2019-02-10T06:50:21.989Z,987.31
2019-02-10T06:51:21.959Z,987.27
2019-02-10T06:52:42.938Z,987.28
2019-02-10T06:53:21.910Z,987.22
2019-02-10T06:54:21.886Z,987.32
2019-02-10T06:55:21.858Z,987.33
2019-02-10T06:56:21.833Z,987.30
2019-02-10T06:57:21.807Z,987.36
2019-02-10T06:58:42.782Z,987.33
2019-02-10T06:59:21.755Z,987.26
2019-02-10T07:00:21.731Z,987.15
2019-02-10T07:01:21.706Z,987.13
2019-02-10T07:02:21.685Z,986.84
2019-02-10T07:03:21.654Z,986.95
2019-02-10T07:04:42.630Z,986.96
2019-02-10T07:05:21.603Z,986.87
2019-02-10T07:06:21.580Z,986.83
2019-02-10T07:07:21.556Z,986.85
2019-02-10T07:08:21.529Z,986.76
2019-02-10T07:09:21.504Z,986.81
2019-02-10T07:10:42.477Z,986.79
2019-02-10T07:11:21.455Z,986.77
2019-02-10T07:12:21.425Z,986.74
2019-02-10T07:13:21.402Z,986.65
2019-02-10T07:14:21.379Z,986.63
2019-02-10T07:15:21.350Z,986.54
2019-02-10T07:16:42.327Z,986.50
2019-02-10T07:17:21.302Z,986.46
2019-02-10T07:18:21.278Z,986.46
2019-02-10T07:19:21.253Z,986.38
2019-02-10T07:20:21.228Z,986.40
2019-02-10T07:21:21.202Z,986.36
2019-02-10T07:22:42.175Z,986.33
2019-02-10T07:23:21.150Z,986.30
2019-02-10T07:24:21.123Z,986.35
2019-02-10T07:25:21.100Z,986.29
2019-02-10T07:26:21.080Z,986.24
2019-02-10T07:27:21.053Z,986.28
2019-02-10T07:28:42.163Z,986.25
2019-02-10T07:29:21.000Z,986.22
2019-02-10T07:30:20.975Z,986.20
2019-02-10T07:31:20.952Z,986.14
2019-02-10T07:32:20.926Z,986.11
2019-02-10T07:33:20.936Z,986.07
2019-02-10T07:34:48.077Z,986.03
2019-02-10T07:35:20.865Z,985.93
2019-02-10T07:36:20.824Z,985.86
2019-02-10T07:37:20.800Z,985.80
2019-02-10T07:38:20.773Z,985.69
2019-02-10T07:39:20.749Z,985.74
2019-02-10T07:40:41.757Z,985.70
2019-02-10T07:41:20.697Z,985.69
2019-02-10T07:42:20.674Z,985.61
2019-02-10T07:43:20.696Z,985.60
2019-02-10T07:44:20.656Z,985.56
2019-02-10T07:45:20.609Z,985.50
2019-02-10T07:46:41.577Z,985.36
2019-02-10T07:47:20.640Z,985.48
2019-02-10T07:48:20.529Z,985.45
2019-02-10T07:49:20.499Z,985.48
2019-02-10T07:50:20.474Z,985.42
2019-02-10T07:51:20.506Z,985.38
2019-02-10T07:52:41.423Z,985.37
2019-02-10T07:53:20.398Z,985.34
2019-02-10T07:54:20.374Z,985.26
2019-02-10T07:55:20.349Z,985.26
2019-02-10T07:56:20.322Z,985.20
2019-02-10T07:57:20.300Z,985.20
2019-02-10T07:58:41.385Z,985.07
2019-02-10T07:59:20.253Z,985.06
2019-02-10T08:00:20.226Z,985.03
2019-02-10T08:01:20.199Z,985.01
2019-02-10T08:02:20.174Z,984.87
2019-02-10T08:03:20.149Z,984.81
2019-02-10T08:04:41.122Z,984.76
2019-02-10T08:05:20.100Z,984.80
2019-02-10T08:06:20.075Z,984.76
2019-02-10T08:07:20.064Z,984.84
2019-02-10T08:08:20.025Z,984.85
2019-02-10T08:09:20.001Z,984.79
2019-02-10T08:10:41.005Z,984.70
2019-02-10T08:11:19.954Z,984.77
2019-02-10T08:12:19.927Z,984.75
2019-02-10T08:13:19.903Z,984.66
2019-02-10T08:14:19.878Z,984.72
2019-02-10T08:15:19.850Z,984.65
2019-02-10T08:16:40.826Z,984.59
2019-02-10T08:17:19.801Z,984.60
2019-02-10T08:18:19.813Z,984.57
2019-02-10T08:19:19.751Z,984.68
2019-02-10T08:20:19.746Z,984.63
2019-02-10T08:21:19.737Z,984.52
2019-02-10T08:22:40.679Z,984.57
2019-02-10T08:23:20.611Z,984.47
2019-02-10T08:24:19.633Z,984.41
2019-02-10T08:25:19.605Z,984.37
2019-02-10T08:26:19.581Z,984.41
2019-02-10T08:27:19.553Z,984.31
2019-02-10T08:28:40.571Z,984.28
2019-02-10T08:29:19.508Z,984.29
2019-02-10T08:30:19.482Z,984.20
2019-02-10T08:31:19.455Z,984.23
2019-02-10T08:32:19.429Z,984.18
2019-02-10T08:33:19.406Z,984.18
2019-02-10T08:34:40.380Z,984.27
2019-02-10T08:35:19.355Z,984.23
2019-02-10T08:36:19.330Z,984.18
2019-02-10T08:37:19.305Z,984.27
2019-02-10T08:38:19.280Z,984.18
2019-02-10T08:39:19.255Z,984.21
2019-02-10T08:40:40.334Z,984.11
2019-02-10T08:41:19.206Z,984.07
2019-02-10T08:42:19.306Z,984.03
2019-02-10T08:43:19.155Z,983.94
2019-02-10T08:44:19.130Z,983.92
2019-02-10T08:45:19.107Z,984.00
2019-02-10T08:46:40.080Z,983.90
2019-02-10T08:47:19.092Z,983.96
2019-02-10T08:48:19.088Z,983.95
2019-02-10T08:49:19.005Z,983.86
2019-02-10T08:50:18.981Z,983.96
2019-02-10T08:51:18.955Z,983.90
2019-02-10T08:52:39.930Z,983.88
2019-02-10T08:53:18.906Z,983.85
2019-02-10T08:54:18.883Z,983.82
2019-02-10T08:55:18.854Z,983.74
2019-02-10T08:56:18.859Z,983.72
2019-02-10T08:57:18.810Z,983.62
2019-02-10T08:58:39.841Z,983.61
2019-02-10T08:59:18.756Z,983.83
2019-02-10T09:00:18.730Z,983.68
2019-02-10T09:01:18.751Z,983.52
2019-02-10T09:02:18.681Z,983.57
2019-02-10T09:03:19.814Z,983.55
2019-02-10T09:04:39.628Z,983.50
2019-02-10T09:05:18.608Z,983.47
2019-02-10T09:06:18.593Z,983.46
2019-02-10T09:07:18.582Z,983.53
2019-02-10T09:08:18.551Z,983.43
2019-02-10T09:09:18.504Z,983.44
2019-02-10T09:10:39.483Z,983.40
2019-02-10T09:11:18.452Z,983.41
2019-02-10T09:12:18.453Z,983.39
2019-02-10T09:13:18.505Z,983.38
2019-02-10T09:14:18.399Z,983.32
2019-02-10T09:15:18.372Z,983.38
2019-02-10T09:16:39.329Z,983.38
2019-02-10T09:17:18.302Z,983.39
2019-02-10T09:18:18.281Z,983.40
2019-02-10T09:19:18.251Z,983.35
2019-02-10T09:20:18.227Z,983.32
2019-02-10T09:21:18.201Z,983.28
2019-02-10T09:22:39.183Z,983.20
2019-02-10T09:23:18.167Z,983.34
2019-02-10T09:24:18.127Z,983.28
2019-02-10T09:25:18.102Z,983.20
2019-02-10T09:26:18.125Z,983.22
2019-02-10T09:27:18.051Z,983.19
2019-02-10T09:28:39.118Z,983.14
2019-02-10T09:29:18.005Z,983.16
2019-02-10T09:30:17.980Z,983.12
2019-02-10T09:31:17.951Z,983.11
2019-02-10T09:32:17.928Z,983.07
2019-02-10T09:33:17.902Z,983.03
2019-02-10T09:34:38.880Z,983.13
2019-02-10T09:35:17.953Z,983.18
2019-02-10T09:36:17.828Z,983.01
2019-02-10T09:37:17.807Z,982.99
2019-02-10T09:38:17.786Z,983.10
2019-02-10T09:39:17.753Z,983.08
2019-02-10T09:40:38.727Z,983.01
2019-02-10T09:41:17.708Z,983.05
2019-02-10T09:42:17.678Z,983.02
2019-02-10T09:43:17.663Z,982.97
2019-02-10T09:44:17.660Z,982.94
2019-02-10T09:45:17.606Z,982.96
2019-02-10T09:46:38.584Z,982.94
2019-02-10T09:47:17.553Z,982.99
2019-02-10T09:48:17.580Z,982.95
2019-02-10T09:49:17.535Z,982.98
2019-02-10T09:50:17.498Z,982.93
2019-02-10T09:51:17.455Z,982.91
2019-02-10T09:52:38.432Z,982.93
2019-02-10T09:53:17.416Z,982.98
2019-02-10T09:54:17.381Z,982.84
2019-02-10T09:55:17.360Z,982.88
2019-02-10T09:56:17.331Z,982.88
2019-02-10T09:57:17.306Z,982.89
2019-02-10T09:58:38.305Z,982.93
2019-02-10T09:59:17.295Z,982.86
2019-02-10T10:00:17.256Z,982.87
2019-02-10T10:01:17.207Z,982.77
2019-02-10T10:02:17.183Z,982.85
2019-02-10T10:03:17.158Z,982.83
2019-02-10T10:04:38.136Z,982.83
2019-02-10T10:05:17.113Z,982.86
2019-02-10T10:06:17.082Z,982.86
2019-02-10T10:07:17.060Z,982.81
2019-02-10T10:08:17.035Z,982.75
2019-02-10T10:09:19.479Z,982.86
2019-02-10T10:10:38.011Z,982.71
2019-02-10T10:11:16.973Z,982.83
2019-02-10T10:12:17.087Z,982.79
2019-02-10T10:13:16.910Z,982.75
2019-02-10T10:14:16.890Z,982.76
2019-02-10T10:15:16.862Z,982.88
2019-02-10T10:16:37.838Z,982.72
2019-02-10T10:17:16.814Z,982.70
2019-02-10T10:18:16.790Z,982.64
2019-02-10T10:19:16.767Z,982.61
2019-02-10T10:20:16.741Z,982.71
2019-02-10T10:21:16.714Z,982.69
2019-02-10T10:22:37.739Z,982.67
2019-02-10T10:23:16.664Z,982.60
2019-02-10T10:24:16.642Z,982.60
2019-02-10T10:25:16.619Z,982.60
2019-02-10T10:26:16.592Z,982.57
2019-02-10T10:27:16.570Z,982.72
2019-02-10T10:28:37.574Z,982.71
2019-02-10T10:29:16.517Z,982.78
2019-02-10T10:30:16.494Z,982.61
2019-02-10T10:31:16.469Z,982.55
2019-02-10T10:32:16.444Z,982.47
2019-02-10T10:33:16.429Z,982.41
2019-02-10T10:34:37.413Z,982.37
2019-02-10T10:35:16.370Z,982.34
2019-02-10T10:36:16.345Z,982.40
2019-02-10T10:37:16.330Z,982.39
2019-02-10T10:38:16.298Z,982.40
2019-02-10T10:39:16.274Z,982.33
2019-02-10T10:40:37.246Z,982.27
2019-02-10T10:41:16.224Z,982.40
2019-02-10T10:42:16.197Z,982.37
2019-02-10T10:43:16.208Z,982.31
2019-02-10T10:44:16.148Z,982.30
2019-02-10T10:45:16.143Z,982.19
2019-02-10T10:46:37.231Z,982.25
2019-02-10T10:47:16.079Z,982.26
2019-02-10T10:48:16.056Z,982.26
2019-02-10T10:49:16.028Z,982.27
2019-02-10T10:50:16.001Z,982.37
2019-02-10T10:51:15.976Z,982.15
2019-02-10T10:52:36.953Z,982.28
2019-02-10T10:53:15.928Z,982.18
2019-02-10T10:54:15.901Z,982.27
2019-02-10T10:55:15.882Z,982.28
2019-02-10T10:56:16.106Z,982.21
2019-02-10T10:57:16.055Z,982.20
2019-02-10T10:58:36.806Z,982.18
2019-02-10T10:59:15.783Z,982.21
2019-02-10T11:00:15.760Z,982.23
2019-02-10T11:01:15.749Z,982.24
2019-02-10T11:02:15.705Z,982.20
2019-02-10T11:03:17.257Z,982.35
2019-02-10T11:04:36.658Z,982.36
2019-02-10T11:05:15.634Z,982.28
2019-02-10T11:06:15.626Z,982.17
2019-02-10T11:07:15.583Z,982.24
2019-02-10T11:08:15.558Z,982.19
2019-02-10T11:09:15.534Z,982.11
2019-02-10T11:10:36.513Z,982.14
2019-02-10T11:11:15.485Z,982.13
2019-02-10T11:12:15.462Z,982.12
2019-02-10T11:13:15.441Z,982.07
2019-02-10T11:14:15.412Z,982.10
2019-02-10T11:15:15.388Z,982.12
2019-02-10T11:16:36.362Z,982.08
2019-02-10T11:17:15.338Z,982.04
2019-02-10T11:18:15.314Z,982.11
2019-02-10T11:19:15.289Z,981.98
2019-02-10T11:20:15.265Z,981.95
2019-02-10T11:21:15.246Z,982.06
2019-02-10T11:22:36.298Z,982.06
2019-02-10T11:23:15.195Z,981.97
2019-02-10T11:24:15.168Z,982.02
2019-02-10T11:25:15.144Z,981.96
2019-02-10T11:26:15.120Z,981.94
2019-02-10T11:27:15.093Z,981.97
2019-02-10T11:28:36.135Z,981.97
2019-02-10T11:29:15.047Z,982.00
2019-02-10T11:30:15.021Z,982.09
2019-02-10T11:31:15.031Z,982.01
2019-02-10T11:32:14.971Z,981.92
2019-02-10T11:33:14.947Z,981.99
2019-02-10T11:34:35.964Z,981.81
2019-02-10T11:35:14.899Z,981.75
2019-02-10T11:36:14.876Z,981.78
2019-02-10T11:37:14.852Z,981.77
2019-02-10T11:38:14.826Z,981.86
2019-02-10T11:39:14.801Z,981.84
2019-02-10T11:40:35.779Z,981.83
2019-02-10T11:41:14.753Z,981.81
2019-02-10T11:42:14.729Z,981.78
2019-02-10T11:43:14.704Z,981.84
2019-02-10T11:44:14.679Z,981.72
2019-02-10T11:45:14.654Z,981.85
2019-02-10T11:46:35.631Z,981.76
2019-02-10T11:47:14.606Z,981.81
2019-02-10T11:48:14.582Z,981.72
2019-02-10T11:49:14.559Z,981.76
2019-02-10T11:50:14.533Z,981.73
2019-02-10T11:51:14.508Z,981.69
2019-02-10T11:52:35.485Z,981.69
2019-02-10T11:53:14.461Z,981.71
2019-02-10T11:54:14.447Z,981.63
2019-02-10T11:55:14.412Z,981.66
2019-02-10T11:56:14.387Z,981.62
2019-02-10T11:57:14.363Z,981.63
2019-02-10T11:58:35.411Z,981.62
2019-02-10T11:59:14.311Z,981.58
2019-02-10T12:00:14.289Z,981.61
2019-02-10T12:01:14.265Z,981.62
2019-02-10T12:02:14.243Z,981.53
2019-02-10T12:03:14.228Z,981.58
2019-02-10T12:04:35.192Z,981.55
2019-02-10T12:05:14.168Z,981.54
2019-02-10T12:06:14.144Z,981.50
2019-02-10T12:07:14.119Z,981.51
2019-02-10T12:08:14.098Z,981.55
2019-02-10T12:09:14.078Z,981.61
2019-02-10T12:10:35.052Z,981.53
2019-02-10T12:11:14.052Z,981.47
2019-02-10T12:12:14.035Z,981.46
2019-02-10T12:13:13.977Z,981.57
2019-02-10T12:14:13.951Z,981.45
2019-02-10T12:15:13.926Z,981.48
2019-02-10T12:16:34.901Z,981.56
2019-02-10T12:17:13.879Z,981.48
2019-02-10T12:18:13.873Z,981.55
2019-02-10T12:19:13.830Z,981.48
2019-02-10T12:20:13.826Z,981.53
2019-02-10T12:21:13.797Z,981.48
2019-02-10T12:22:34.758Z,981.45
2019-02-10T12:23:13.735Z,981.44
2019-02-10T12:24:13.710Z,981.53
2019-02-10T12:25:13.685Z,981.64
2019-02-10T12:26:13.661Z,981.46
2019-02-10T12:27:13.636Z,981.42
2019-02-10T12:28:34.689Z,981.42